createdAt,value
2023-09-08T00:04:50.880Z,96.61
2023-09-08T00:14:53.882Z,99.23
2023-09-08T00:24:58.509Z,98.35
2023-09-08T00:35:01.520Z,99.45
2023-09-08T00:45:06.931Z,100.00
2023-09-08T00:55:10.796Z,100.00
2023-09-08T01:05:15.649Z,100.00
2023-09-08T01:15:18.762Z,100.00
2023-09-08T01:25:23.925Z,100.00
2023-09-08T01:35:27.403Z,100.00
2023-09-08T01:45:31.821Z,100.00
2023-09-08T01:55:34.902Z,100.00
2023-09-08T02:05:40.269Z,100.00
2023-09-08T02:15:43.474Z,100.00
2023-09-08T02:25:48.764Z,100.00
2023-09-08T02:35:52.112Z,100.00
2023-09-08T02:45:57.625Z,100.00
2023-09-08T02:56:01.441Z,100.00
2023-09-08T03:06:06.024Z,100.00
2023-09-08T03:16:11.686Z,100.00
2023-09-08T03:26:16.253Z,100.00
2023-09-08T03:36:19.068Z,100.00
2023-09-08T03:46:25.684Z,100.00
2023-09-08T03:56:28.981Z,100.00
2023-09-08T04:06:33.431Z,100.00
2023-09-08T04:16:36.980Z,100.00
2023-09-08T04:26:42.048Z,100.00
2023-09-08T04:36:45.696Z,100.00
2023-09-08T04:46:50.316Z,100.00
2023-09-08T04:56:54.313Z,100.00
2023-09-08T05:07:01.568Z,100.00
2023-09-08T05:17:06.027Z,100.00
2023-09-08T05:27:10.747Z,100.00
2023-09-08T05:37:13.948Z,100.00
2023-09-08T05:47:18.705Z,100.00
2023-09-08T05:57:22.428Z,100.00
2023-09-08T06:07:26.867Z,100.00
2023-09-08T06:17:29.979Z,100.00
2023-09-08T06:27:34.977Z,100.00
2023-09-08T06:37:38.595Z,100.00
2023-09-08T06:47:44.979Z,100.00
2023-09-08T06:57:48.670Z,100.00
2023-09-08T07:07:53.423Z,100.00
2023-09-08T07:17:56.637Z,100.00
2023-09-08T07:28:01.483Z,99.12
2023-09-08T07:38:04.560Z,96.60
2023-09-08T07:48:09.575Z,94.42
2023-09-08T07:58:13.324Z,92.81
2023-09-08T08:08:22.178Z,90.62
2023-09-08T08:18:30.531Z,88.97
2023-09-08T08:28:38.276Z,86.32
2023-09-08T08:38:51.238Z,85.08
2023-09-08T08:48:58.932Z,83.13
2023-09-08T08:59:05.806Z,81.78
2023-09-08T09:09:13.475Z,82.03
2023-09-08T09:19:26.509Z,79.49
2023-09-08T09:29:31.019Z,78.03
2023-09-08T09:39:37.417Z,75.35
2023-09-08T09:49:51.298Z,74.43
2023-09-08T09:59:57.216Z,73.80
2023-09-08T10:10:02.345Z,71.19
2023-09-08T10:20:17.231Z,72.81
2023-09-08T10:30:22.945Z,70.09
2023-09-08T10:40:28.456Z,70.43
2023-09-08T10:50:38.013Z,69.36
2023-09-08T11:00:49.211Z,67.31
2023-09-08T11:10:53.603Z,66.75
2023-09-08T11:21:00.268Z,66.74
2023-09-08T11:31:08.518Z,62.85
2023-09-08T11:41:17.381Z,61.05
2023-09-08T11:51:26.260Z,61.32
2023-09-08T12:01:32.738Z,60.54
2023-09-08T12:11:43.797Z,60.56
2023-09-08T12:21:57.743Z,57.85
2023-09-08T12:32:03.734Z,57.36
2023-09-08T12:42:09.856Z,56.25
2023-09-08T12:52:15.228Z,56.44
2023-09-08T13:02:27.186Z,55.75
2023-09-08T13:12:32.462Z,55.56
2023-09-08T13:22:38.572Z,55.72
2023-09-08T13:32:51.855Z,56.10
2023-09-08T13:42:54.926Z,56.25
2023-09-08T13:53:09.251Z,55.53
2023-09-08T14:03:14.376Z,55.58
2023-09-08T14:13:20.062Z,56.23
2023-09-08T14:23:32.269Z,55.63
2023-09-08T14:33:37.599Z,52.48
2023-09-08T14:43:49.943Z,50.96
2023-09-08T14:53:54.409Z,50.94
2023-09-08T15:04:00.777Z,50.62
2023-09-08T15:14:12.016Z,48.32
2023-09-08T15:24:18.162Z,49.60
2023-09-08T15:34:27.613Z,48.54
2023-09-08T15:44:38.340Z,50.18
2023-09-08T15:54:43.245Z,51.22
2023-09-08T16:04:51.713Z,54.15
2023-09-08T16:15:02.284Z,53.47
2023-09-08T16:25:09.074Z,55.49
2023-09-08T16:35:20.249Z,54.46
2023-09-08T16:45:26.170Z,54.75
2023-09-08T16:55:33.803Z,56.70
2023-09-08T17:05:44.135Z,58.51
2023-09-08T17:15:51.684Z,60.97
2023-09-08T17:25:57.279Z,63.19
2023-09-08T17:36:08.575Z,66.78
2023-09-08T17:46:14.922Z,69.40
2023-09-08T17:56:22.957Z,72.73
2023-09-08T18:06:25.911Z,76.33
2023-09-08T18:16:30.311Z,80.48
2023-09-08T18:26:33.273Z,84.04
2023-09-08T18:36:37.610Z,87.62
2023-09-08T18:46:40.765Z,89.98
2023-09-08T18:56:45.198Z,91.96
2023-09-08T19:06:48.195Z,95.16
2023-09-08T19:16:52.444Z,97.30
2023-09-08T19:26:55.463Z,98.33
2023-09-08T19:37:00.009Z,99.19
2023-09-08T19:47:03.087Z,100.00
2023-09-08T19:57:07.678Z,100.00
2023-09-08T20:07:10.796Z,100.00
2023-09-08T20:17:15.310Z,100.00
2023-09-08T20:27:18.490Z,100.00
2023-09-08T20:37:22.934Z,100.00
2023-09-08T20:47:25.896Z,100.00
2023-09-08T20:57:30.238Z,100.00
2023-09-08T21:07:33.235Z,100.00
2023-09-08T21:17:37.649Z,100.00
2023-09-08T21:27:40.684Z,100.00
2023-09-08T21:37:45.043Z,100.00
2023-09-08T21:47:48.975Z,100.00
2023-09-08T21:57:53.448Z,100.00
2023-09-08T22:07:56.456Z,100.00
2023-09-08T22:18:00.812Z,100.00
2023-09-08T22:28:04.198Z,100.00
2023-09-08T22:38:08.538Z,100.00
2023-09-08T22:48:12.007Z,100.00
2023-09-08T22:58:17.093Z,100.00
2023-09-08T23:08:20.311Z,100.00
2023-09-08T23:18:24.786Z,100.00
2023-09-08T23:28:27.927Z,100.00
2023-09-08T23:38:32.344Z,100.00
2023-09-08T23:48:35.282Z,100.00
2023-09-08T23:58:39.615Z,100.00
